La Carlota, Argentina
Current Conditions -  °F | °C
As of 5:00 PM on Thursday 23 Oct 2014 (Local Time) from SAOC Reporting Station
Clear Clear  
Wind Chill: 91°   Ceiling: Unl
Heat Index: 91°   Visibility: 6mi
Dew Point: 45°   Wind: 17mph
Humidity: 20%   Direction: 20°NNE
Pressure: 29.83"   Gusts: NA
Location:  33.43°S, 63.3°W
Report Text: SAOC 232000Z 02015KT CAVOK 33/07 Q1010
Loading
Personal Weather Stations






























Interactive Weather Map New forecast layout! Learn more

10-Day Weather Forecast

Advertisements
Track Severe Weather on mobile